sensor_id;sensor_type;location;lat;lon;timestamp;P1;durP1;ratioP1;P2;durP2;ratioP2
2476;SDS011;1249;51.270;6.756;2023-05-14T00:01:34;8.27;;;7.67;;
2476;SDS011;1249;51.270;6.756;2023-05-14T00:04:00;8.23;;;7.43;;
2476;SDS011;1249;51.270;6.756;2023-05-14T00:06:26;8.90;;;8.00;;
2476;SDS011;1249;51.270;6.756;2023-05-14T00:08:52;8.03;;;7.17;;
2476;SDS011;1249;51.270;6.756;2023-05-14T00:11:17;9.07;;;8.20;;
2476;SDS011;1249;51.270;6.756;2023-05-14T00:13:43;8.13;;;7.33;;
2476;SDS011;1249;51.270;6.756;2023-05-14T00:16:09;8.17;;;7.37;;
2476;SDS011;1249;51.270;6.756;2023-05-14T00:18:35;7.83;;;7.13;;
2476;SDS011;1249;51.270;6.756;2023-05-14T00:21:00;7.33;;;6.63;;
2476;SDS011;1249;51.270;6.756;2023-05-14T00:23:26;7.87;;;7.07;;
2476;SDS011;1249;51.270;6.756;2023-05-14T00:25:51;8.20;;;6.30;;
2476;SDS011;1249;51.270;6.756;2023-05-14T00:28:17;10.43;;;7.40;;
2476;SDS011;1249;51.270;6.756;2023-05-14T00:30:42;9.60;;;7.53;;
2476;SDS011;1249;51.270;6.756;2023-05-14T00:33:08;10.07;;;6.90;;
2476;SDS011;1249;51.270;6.756;2023-05-14T00:35:34;7.77;;;6.63;;
2476;SDS011;1249;51.270;6.756;2023-05-14T00:38:00;7.33;;;6.73;;
2476;SDS011;1249;51.270;6.756;2023-05-14T00:40:26;7.50;;;6.70;;
2476;SDS011;1249;51.270;6.756;2023-05-14T00:42:52;9.73;;;7.47;;
2476;SDS011;1249;51.270;6.756;2023-05-14T00:45:18;8.10;;;7.10;;
2476;SDS011;1249;51.270;6.756;2023-05-14T00:47:44;7.77;;;7.07;;
2476;SDS011;1249;51.270;6.756;2023-05-14T00:50:10;8.00;;;7.30;;
2476;SDS011;1249;51.270;6.756;2023-05-14T00:52:37;8.30;;;7.03;;
2476;SDS011;1249;51.270;6.756;2023-05-14T00:55:03;8.70;;;7.43;;
2476;SDS011;1249;51.270;6.756;2023-05-14T00:57:30;7.70;;;7.00;;
2476;SDS011;1249;51.270;6.756;2023-05-14T00:59:57;7.30;;;6.70;;
2476;SDS011;1249;51.270;6.756;2023-05-14T01:02:23;7.90;;;7.10;;
2476;SDS011;1249;51.270;6.756;2023-05-14T01:04:48;8.00;;;7.30;;
2476;SDS011;1249;51.270;6.756;2023-05-14T01:10:05;7.40;;;6.70;;
2476;SDS011;1249;51.270;6.756;2023-05-14T01:12:39;8.00;;;7.20;;
2476;SDS011;1249;51.270;6.756;2023-05-14T01:15:20;7.23;;;6.50;;
2476;SDS011;1249;51.270;6.756;2023-05-14T01:17:51;7.73;;;6.93;;
2476;SDS011;1249;51.270;6.756;2023-05-14T01:20:20;7.90;;;7.20;;
2476;SDS011;1249;51.270;6.756;2023-05-14T01:22:46;7.37;;;6.67;;
2476;SDS011;1249;51.270;6.756;2023-05-14T01:25:11;8.20;;;7.50;;
2476;SDS011;1249;51.270;6.756;2023-05-14T01:27:38;8.60;;;7.80;;
2476;SDS011;1249;51.270;6.756;2023-05-14T01:32:55;8.03;;;7.33;;
2476;SDS011;1249;51.270;6.756;2023-05-14T01:35:27;8.33;;;7.53;;
2476;SDS011;1249;51.270;6.756;2023-05-14T01:37:58;9.93;;;6.63;;
2476;SDS011;1249;51.270;6.756;2023-05-14T01:40:25;13.73;;;7.80;;
2476;SDS011;1249;51.270;6.756;2023-05-14T01:42:52;7.47;;;6.67;;
2476;SDS011;1249;51.270;6.756;2023-05-14T01:45:19;6.87;;;6.27;;
2476;SDS011;1249;51.270;6.756;2023-05-14T01:47:45;7.43;;;6.70;;
2476;SDS011;1249;51.270;6.756;2023-05-14T01:50:11;7.13;;;6.50;;
2476;SDS011;1249;51.270;6.756;2023-05-14T01:52:36;7.40;;;6.70;;
2476;SDS011;1249;51.270;6.756;2023-05-14T01:55:02;7.93;;;6.73;;
2476;SDS011;1249;51.270;6.756;2023-05-14T01:57:29;7.70;;;6.97;;
2476;SDS011;1249;51.270;6.756;2023-05-14T01:59:55;7.40;;;6.43;;
2476;SDS011;1249;51.270;6.756;2023-05-14T02:02:20;6.60;;;6.10;;
2476;SDS011;1249;51.270;6.756;2023-05-14T02:04:46;8.17;;;7.40;;
2476;SDS011;1249;51.270;6.756;2023-05-14T02:07:12;7.50;;;6.80;;
2476;SDS011;1249;51.270;6.756;2023-05-14T02:09:37;8.50;;;7.03;;
2476;SDS011;1249;51.270;6.756;2023-05-14T02:12:04;7.67;;;6.90;;
2476;SDS011;1249;51.270;6.756;2023-05-14T02:14:30;9.17;;;7.13;;
2476;SDS011;1249;51.270;6.756;2023-05-14T02:16:55;7.83;;;6.93;;
2476;SDS011;1249;51.270;6.756;2023-05-14T02:19:21;7.83;;;6.37;;
2476;SDS011;1249;51.270;6.756;2023-05-14T02:21:47;13.10;;;6.63;;
2476;SDS011;1249;51.270;6.756;2023-05-14T02:24:12;7.47;;;6.70;;
2476;SDS011;1249;51.270;6.756;2023-05-14T02:26:38;6.87;;;6.27;;
2476;SDS011;1249;51.270;6.756;2023-05-14T02:29:03;7.00;;;6.40;;
2476;SDS011;1249;51.270;6.756;2023-05-14T02:31:29;8.23;;;6.70;;
2476;SDS011;1249;51.270;6.756;2023-05-14T02:33:54;7.10;;;6.50;;
2476;SDS011;1249;51.270;6.756;2023-05-14T02:38:54;7.50;;;6.80;;
2476;SDS011;1249;51.270;6.756;2023-05-14T02:41:21;9.83;;;6.50;;
2476;SDS011;1249;51.270;6.756;2023-05-14T02:43:46;7.60;;;6.93;;
2476;SDS011;1249;51.270;6.756;2023-05-14T02:46:12;9.47;;;7.23;;
2476;SDS011;1249;51.270;6.756;2023-05-14T02:48:37;8.90;;;6.60;;
2476;SDS011;1249;51.270;6.756;2023-05-14T02:51:03;7.70;;;6.60;;
2476;SDS011;1249;51.270;6.756;2023-05-14T02:53:28;9.27;;;7.10;;
2476;SDS011;1249;51.270;6.756;2023-05-14T02:55:54;8.37;;;6.00;;
2476;SDS011;1249;51.270;6.756;2023-05-14T02:58:20;7.73;;;7.07;;
2476;SDS011;1249;51.270;6.756;2023-05-14T03:00:45;7.40;;;6.70;;
2476;SDS011;1249;51.270;6.756;2023-05-14T03:03:11;10.07;;;6.97;;
2476;SDS011;1249;51.270;6.756;2023-05-14T03:05:36;7.67;;;6.67;;
2476;SDS011;1249;51.270;6.756;2023-05-14T03:08:02;7.57;;;6.90;;
2476;SDS011;1249;51.270;6.756;2023-05-14T03:10:27;7.50;;;6.80;;
2476;SDS011;1249;51.270;6.756;2023-05-14T03:12:53;17.87;;;7.10;;
2476;SDS011;1249;51.270;6.756;2023-05-14T03:15:18;9.43;;;7.10;;
2476;SDS011;1249;51.270;6.756;2023-05-14T03:17:44;6.77;;;6.17;;
2476;SDS011;1249;51.270;6.756;2023-05-14T03:20:10;7.30;;;6.60;;
2476;SDS011;1249;51.270;6.756;2023-05-14T03:22:36;8.93;;;7.33;;
2476;SDS011;1249;51.270;6.756;2023-05-14T03:25:02;7.73;;;6.93;;
2476;SDS011;1249;51.270;6.756;2023-05-14T03:27:28;7.90;;;7.20;;
2476;SDS011;1249;51.270;6.756;2023-05-14T03:29:53;8.40;;;6.80;;
2476;SDS011;1249;51.270;6.756;2023-05-14T03:32:19;7.43;;;6.83;;
2476;SDS011;1249;51.270;6.756;2023-05-14T03:34:45;11.20;;;7.60;;
2476;SDS011;1249;51.270;6.756;2023-05-14T03:37:10;8.13;;;7.53;;
2476;SDS011;1249;51.270;6.756;2023-05-14T03:39:36;9.80;;;7.87;;
2476;SDS011;1249;51.270;6.756;2023-05-14T03:42:02;7.83;;;7.07;;
2476;SDS011;1249;51.270;6.756;2023-05-14T03:44:27;8.10;;;7.40;;
2476;SDS011;1249;51.270;6.756;2023-05-14T03:46:53;8.33;;;6.60;;
2476;SDS011;1249;51.270;6.756;2023-05-14T03:49:18;8.50;;;6.97;;
2476;SDS011;1249;51.270;6.756;2023-05-14T03:51:44;7.87;;;6.90;;
2476;SDS011;1249;51.270;6.756;2023-05-14T03:54:10;7.80;;;7.10;;
2476;SDS011;1249;51.270;6.756;2023-05-14T03:56:35;9.00;;;7.30;;
2476;SDS011;1249;51.270;6.756;2023-05-14T03:59:01;7.40;;;6.80;;
2476;SDS011;1249;51.270;6.756;2023-05-14T04:01:26;7.30;;;6.60;;
2476;SDS011;1249;51.270;6.756;2023-05-14T04:03:52;7.67;;;6.90;;
2476;SDS011;1249;51.270;6.756;2023-05-14T04:06:17;8.23;;;7.10;;
2476;SDS011;1249;51.270;6.756;2023-05-14T04:08:43;9.30;;;8.37;;
2476;SDS011;1249;51.270;6.756;2023-05-14T04:11:09;8.03;;;7.23;;
2476;SDS011;1249;51.270;6.756;2023-05-14T04:13:34;8.43;;;7.63;;
2476;SDS011;1249;51.270;6.756;2023-05-14T04:16:00;7.20;;;6.50;;
2476;SDS011;1249;51.270;6.756;2023-05-14T04:18:25;11.80;;;8.73;;
2476;SDS011;1249;51.270;6.756;2023-05-14T04:20:51;7.87;;;7.17;;
2476;SDS011;1249;51.270;6.756;2023-05-14T04:23:16;9.80;;;6.97;;
2476;SDS011;1249;51.270;6.756;2023-05-14T04:25:42;7.73;;;6.93;;
2476;SDS011;1249;51.270;6.756;2023-05-14T04:28:07;9.60;;;7.37;;
2476;SDS011;1249;51.270;6.756;2023-05-14T04:30:33;7.60;;;7.00;;
2476;SDS011;1249;51.270;6.756;2023-05-14T04:32:59;8.93;;;7.37;;
2476;SDS011;1249;51.270;6.756;2023-05-14T04:35:24;8.40;;;7.60;;
2476;SDS011;1249;51.270;6.756;2023-05-14T04:37:50;9.40;;;6.83;;
2476;SDS011;1249;51.270;6.756;2023-05-14T04:40:15;7.97;;;7.17;;
2476;SDS011;1249;51.270;6.756;2023-05-14T04:42:41;9.17;;;7.10;;
2476;SDS011;1249;51.270;6.756;2023-05-14T04:45:07;7.70;;;7.00;;
2476;SDS011;1249;51.270;6.756;2023-05-14T04:47:33;11.03;;;7.17;;
2476;SDS011;1249;51.270;6.756;2023-05-14T04:49:59;10.10;;;7.57;;
2476;SDS011;1249;51.270;6.756;2023-05-14T04:52:25;8.20;;;7.40;;
2476;SDS011;1249;51.270;6.756;2023-05-14T04:54:51;9.10;;;8.20;;
2476;SDS011;1249;51.270;6.756;2023-05-14T04:57:16;8.63;;;7.23;;
2476;SDS011;1249;51.270;6.756;2023-05-14T04:59:42;8.90;;;8.10;;
2476;SDS011;1249;51.270;6.756;2023-05-14T05:02:07;10.80;;;7.60;;
2476;SDS011;1249;51.270;6.756;2023-05-14T05:04:33;9.37;;;8.50;;
2476;SDS011;1249;51.270;6.756;2023-05-14T05:06:59;8.57;;;7.73;;
2476;SDS011;1249;51.270;6.756;2023-05-14T05:09:24;10.03;;;8.57;;
2476;SDS011;1249;51.270;6.756;2023-05-14T05:11:50;9.00;;;8.00;;
2476;SDS011;1249;51.270;6.756;2023-05-14T05:14:15;9.03;;;8.23;;
2476;SDS011;1249;51.270;6.756;2023-05-14T05:16:41;10.17;;;9.00;;
2476;SDS011;1249;51.270;6.756;2023-05-14T05:19:07;9.40;;;8.60;;
2476;SDS011;1249;51.270;6.756;2023-05-14T05:21:32;8.90;;;8.10;;
2476;SDS011;1249;51.270;6.756;2023-05-14T05:23:58;9.00;;;8.20;;
2476;SDS011;1249;51.270;6.756;2023-05-14T05:26:25;8.80;;;8.00;;
2476;SDS011;1249;51.270;6.756;2023-05-14T05:28:50;8.77;;;8.07;;
2476;SDS011;1249;51.270;6.756;2023-05-14T05:31:16;9.40;;;8.43;;
2476;SDS011;1249;51.270;6.756;2023-05-14T05:33:42;9.60;;;8.70;;
2476;SDS011;1249;51.270;6.756;2023-05-14T05:36:08;11.33;;;10.13;;
2476;SDS011;1249;51.270;6.756;2023-05-14T05:38:33;9.50;;;8.60;;
2476;SDS011;1249;51.270;6.756;2023-05-14T05:40:59;10.50;;;9.50;;
2476;SDS011;1249;51.270;6.756;2023-05-14T05:43:24;10.20;;;9.23;;
2476;SDS011;1249;51.270;6.756;2023-05-14T05:45:50;11.17;;;10.07;;
2476;SDS011;1249;51.270;6.756;2023-05-14T05:48:15;10.93;;;9.83;;
2476;SDS011;1249;51.270;6.756;2023-05-14T05:50:41;10.70;;;9.40;;
2476;SDS011;1249;51.270;6.756;2023-05-14T05:53:08;10.60;;;9.60;;
2476;SDS011;1249;51.270;6.756;2023-05-14T05:55:34;11.93;;;10.83;;
2476;SDS011;1249;51.270;6.756;2023-05-14T05:57:59;12.13;;;9.90;;
2476;SDS011;1249;51.270;6.756;2023-05-14T06:00:25;10.80;;;9.50;;
2476;SDS011;1249;51.270;6.756;2023-05-14T06:02:51;10.93;;;10.00;;
2476;SDS011;1249;51.270;6.756;2023-05-14T06:05:16;13.13;;;10.40;;
2476;SDS011;1249;51.270;6.756;2023-05-14T06:07:43;11.20;;;10.10;;
2476;SDS011;1249;51.270;6.756;2023-05-14T06:10:09;11.53;;;10.40;;
2476;SDS011;1249;51.270;6.756;2023-05-14T06:12:34;11.50;;;10.40;;
2476;SDS011;1249;51.270;6.756;2023-05-14T06:15:00;11.40;;;10.10;;
2476;SDS011;1249;51.270;6.756;2023-05-14T06:17:26;11.20;;;10.10;;
2476;SDS011;1249;51.270;6.756;2023-05-14T06:19:51;11.90;;;10.80;;
2476;SDS011;1249;51.270;6.756;2023-05-14T06:22:17;11.60;;;10.60;;
2476;SDS011;1249;51.270;6.756;2023-05-14T06:24:43;11.83;;;10.03;;
2476;SDS011;1249;51.270;6.756;2023-05-14T06:27:09;10.60;;;9.13;;
2476;SDS011;1249;51.270;6.756;2023-05-14T06:29:35;11.43;;;10.33;;
2476;SDS011;1249;51.270;6.756;2023-05-14T06:32:01;10.70;;;9.73;;
2476;SDS011;1249;51.270;6.756;2023-05-14T06:34:27;10.73;;;9.73;;
2476;SDS011;1249;51.270;6.756;2023-05-14T06:36:53;10.37;;;9.23;;
2476;SDS011;1249;51.270;6.756;2023-05-14T06:39:19;10.47;;;9.53;;
2476;SDS011;1249;51.270;6.756;2023-05-14T06:41:45;10.83;;;9.70;;
2476;SDS011;1249;51.270;6.756;2023-05-14T06:44:10;11.20;;;10.17;;
2476;SDS011;1249;51.270;6.756;2023-05-14T06:46:36;12.53;;;10.07;;
2476;SDS011;1249;51.270;6.756;2023-05-14T06:49:01;11.50;;;10.30;;
2476;SDS011;1249;51.270;6.756;2023-05-14T06:51:27;10.03;;;9.13;;
2476;SDS011;1249;51.270;6.756;2023-05-14T06:53:53;11.47;;;10.30;;
2476;SDS011;1249;51.270;6.756;2023-05-14T06:56:19;10.83;;;9.77;;
2476;SDS011;1249;51.270;6.756;2023-05-14T06:58:46;10.70;;;9.70;;
2476;SDS011;1249;51.270;6.756;2023-05-14T07:01:11;10.20;;;9.13;;
2476;SDS011;1249;51.270;6.756;2023-05-14T07:03:37;10.47;;;9.57;;
2476;SDS011;1249;51.270;6.756;2023-05-14T07:06:03;10.00;;;9.10;;
2476;SDS011;1249;51.270;6.756;2023-05-14T07:08:29;11.93;;;9.80;;
2476;SDS011;1249;51.270;6.756;2023-05-14T07:10:54;17.40;;;9.47;;
2476;SDS011;1249;51.270;6.756;2023-05-14T07:13:21;11.47;;;10.43;;
2476;SDS011;1249;51.270;6.756;2023-05-14T07:15:47;11.63;;;10.43;;
2476;SDS011;1249;51.270;6.756;2023-05-14T07:18:13;10.53;;;9.47;;
2476;SDS011;1249;51.270;6.756;2023-05-14T07:20:38;9.83;;;9.03;;
2476;SDS011;1249;51.270;6.756;2023-05-14T07:23:04;10.87;;;9.87;;
2476;SDS011;1249;51.270;6.756;2023-05-14T07:25:29;9.63;;;8.83;;
2476;SDS011;1249;51.270;6.756;2023-05-14T07:27:56;12.80;;;10.30;;
2476;SDS011;1249;51.270;6.756;2023-05-14T07:30:22;11.47;;;10.37;;
2476;SDS011;1249;51.270;6.756;2023-05-14T07:32:47;11.20;;;10.13;;
2476;SDS011;1249;51.270;6.756;2023-05-14T07:35:13;11.73;;;10.63;;
2476;SDS011;1249;51.270;6.756;2023-05-14T07:37:38;11.83;;;10.50;;
2476;SDS011;1249;51.270;6.756;2023-05-14T07:40:04;11.53;;;10.43;;
2476;SDS011;1249;51.270;6.756;2023-05-14T07:42:30;12.63;;;9.90;;
2476;SDS011;1249;51.270;6.756;2023-05-14T07:44:56;18.10;;;11.33;;
2476;SDS011;1249;51.270;6.756;2023-05-14T07:47:22;12.47;;;11.30;;
2476;SDS011;1249;51.270;6.756;2023-05-14T07:49:47;12.53;;;11.20;;
2476;SDS011;1249;51.270;6.756;2023-05-14T07:52:13;14.80;;;13.47;;
2476;SDS011;1249;51.270;6.756;2023-05-14T07:54:38;13.57;;;12.17;;
2476;SDS011;1249;51.270;6.756;2023-05-14T07:57:04;13.67;;;12.37;;
2476;SDS011;1249;51.270;6.756;2023-05-14T07:59:30;12.40;;;11.23;;
2476;SDS011;1249;51.270;6.756;2023-05-14T08:01:56;13.40;;;12.10;;
2476;SDS011;1249;51.270;6.756;2023-05-14T08:04:21;14.50;;;13.10;;
2476;SDS011;1249;51.270;6.756;2023-05-14T08:06:47;12.60;;;11.40;;
2476;SDS011;1249;51.270;6.756;2023-05-14T08:09:13;13.40;;;12.17;;
2476;SDS011;1249;51.270;6.756;2023-05-14T08:11:39;12.67;;;11.47;;
2476;SDS011;1249;51.270;6.756;2023-05-14T08:14:04;13.70;;;11.47;;
2476;SDS011;1249;51.270;6.756;2023-05-14T08:16:30;11.77;;;10.67;;
2476;SDS011;1249;51.270;6.756;2023-05-14T08:18:55;13.40;;;12.00;;
2476;SDS011;1249;51.270;6.756;2023-05-14T08:21:21;13.10;;;11.77;;
2476;SDS011;1249;51.270;6.756;2023-05-14T08:23:46;12.13;;;11.10;;
2476;SDS011;1249;51.270;6.756;2023-05-14T08:26:12;11.63;;;10.57;;
2476;SDS011;1249;51.270;6.756;2023-05-14T08:28:38;12.60;;;11.27;;
2476;SDS011;1249;51.270;6.756;2023-05-14T08:31:03;12.47;;;11.37;;
2476;SDS011;1249;51.270;6.756;2023-05-14T08:33:29;13.10;;;11.90;;
2476;SDS011;1249;51.270;6.756;2023-05-14T08:35:54;12.30;;;11.20;;
2476;SDS011;1249;51.270;6.756;2023-05-14T08:38:22;12.30;;;10.87;;
2476;SDS011;1249;51.270;6.756;2023-05-14T08:40:48;12.53;;;11.43;;
2476;SDS011;1249;51.270;6.756;2023-05-14T08:43:20;12.73;;;11.47;;
2476;SDS011;1249;51.270;6.756;2023-05-14T08:45:52;11.60;;;10.50;;
2476;SDS011;1249;51.270;6.756;2023-05-14T08:48:21;11.93;;;10.77;;
2476;SDS011;1249;51.270;6.756;2023-05-14T08:50:48;12.77;;;10.57;;
2476;SDS011;1249;51.270;6.756;2023-05-14T08:53:14;12.77;;;9.93;;
2476;SDS011;1249;51.270;6.756;2023-05-14T08:55:39;11.50;;;10.60;;
2476;SDS011;1249;51.270;6.756;2023-05-14T08:58:06;11.27;;;10.07;;
2476;SDS011;1249;51.270;6.756;2023-05-14T09:00:32;11.03;;;10.00;;
2476;SDS011;1249;51.270;6.756;2023-05-14T09:02:58;10.67;;;9.67;;
2476;SDS011;1249;51.270;6.756;2023-05-14T09:05:24;10.30;;;9.30;;
2476;SDS011;1249;51.270;6.756;2023-05-14T09:07:51;10.43;;;9.33;;
2476;SDS011;1249;51.270;6.756;2023-05-14T09:10:17;12.00;;;10.17;;
2476;SDS011;1249;51.270;6.756;2023-05-14T09:12:42;10.27;;;9.33;;
2476;SDS011;1249;51.270;6.756;2023-05-14T09:15:08;10.93;;;10.03;;
2476;SDS011;1249;51.270;6.756;2023-05-14T09:17:34;10.60;;;9.60;;
2476;SDS011;1249;51.270;6.756;2023-05-14T09:19:59;11.30;;;9.37;;
2476;SDS011;1249;51.270;6.756;2023-05-14T09:22:25;9.40;;;8.60;;
2476;SDS011;1249;51.270;6.756;2023-05-14T09:25:05;8.97;;;8.17;;
2476;SDS011;1249;51.270;6.756;2023-05-14T09:27:36;8.27;;;7.53;;
2476;SDS011;1249;51.270;6.756;2023-05-14T09:32:35;8.20;;;6.43;;
2476;SDS011;1249;51.270;6.756;2023-05-14T09:35:08;6.47;;;5.97;;
2476;SDS011;1249;51.270;6.756;2023-05-14T09:37:36;6.90;;;6.30;;
2476;SDS011;1249;51.270;6.756;2023-05-14T09:40:06;9.53;;;8.63;;
2476;SDS011;1249;51.270;6.756;2023-05-14T09:42:33;7.47;;;6.87;;
2476;SDS011;1249;51.270;6.756;2023-05-14T09:44:58;7.77;;;7.17;;
2476;SDS011;1249;51.270;6.756;2023-05-14T09:47:24;8.00;;;7.33;;
2476;SDS011;1249;51.270;6.756;2023-05-14T09:49:50;8.23;;;7.53;;
2476;SDS011;1249;51.270;6.756;2023-05-14T09:52:19;7.53;;;6.83;;
2476;SDS011;1249;51.270;6.756;2023-05-14T09:54:45;9.43;;;6.83;;
2476;SDS011;1249;51.270;6.756;2023-05-14T09:57:11;6.57;;;6.00;;
2476;SDS011;1249;51.270;6.756;2023-05-14T09:59:36;6.37;;;5.87;;
2476;SDS011;1249;51.270;6.756;2023-05-14T10:02:02;5.83;;;5.43;;
2476;SDS011;1249;51.270;6.756;2023-05-14T10:04:31;6.37;;;5.87;;
2476;SDS011;1249;51.270;6.756;2023-05-14T10:06:58;5.13;;;4.80;;
2476;SDS011;1249;51.270;6.756;2023-05-14T10:09:24;5.80;;;5.30;;
2476;SDS011;1249;51.270;6.756;2023-05-14T10:11:54;5.13;;;4.83;;
2476;SDS011;1249;51.270;6.756;2023-05-14T10:14:29;5.10;;;4.60;;
2476;SDS011;1249;51.270;6.756;2023-05-14T10:17:00;7.03;;;5.00;;
2476;SDS011;1249;51.270;6.756;2023-05-14T10:19:27;5.60;;;5.20;;
2476;SDS011;1249;51.270;6.756;2023-05-14T10:21:59;6.77;;;6.17;;
2476;SDS011;1249;51.270;6.756;2023-05-14T10:24:28;6.23;;;5.70;;
2476;SDS011;1249;51.270;6.756;2023-05-14T10:26:55;7.40;;;5.30;;
2476;SDS011;1249;51.270;6.756;2023-05-14T10:29:32;4.87;;;4.53;;
2476;SDS011;1249;51.270;6.756;2023-05-14T10:32:00;4.67;;;4.27;;
2476;SDS011;1249;51.270;6.756;2023-05-14T10:34:33;4.70;;;4.40;;
2476;SDS011;1249;51.270;6.756;2023-05-14T10:37:03;5.07;;;4.67;;
2476;SDS011;1249;51.270;6.756;2023-05-14T10:39:40;5.80;;;5.33;;
2476;SDS011;1249;51.270;6.756;2023-05-14T10:42:13;5.00;;;4.50;;
2476;SDS011;1249;51.270;6.756;2023-05-14T10:44:53;6.13;;;5.53;;
2476;SDS011;1249;51.270;6.756;2023-05-14T10:47:22;6.50;;;5.43;;
2476;SDS011;1249;51.270;6.756;2023-05-14T10:49:51;5.90;;;5.30;;
2476;SDS011;1249;51.270;6.756;2023-05-14T10:52:18;5.60;;;5.10;;
2476;SDS011;1249;51.270;6.756;2023-05-14T10:55:03;5.60;;;5.10;;
2476;SDS011;1249;51.270;6.756;2023-05-14T10:57:35;6.97;;;5.23;;
2476;SDS011;1249;51.270;6.756;2023-05-14T11:00:02;5.17;;;4.60;;
2476;SDS011;1249;51.270;6.756;2023-05-14T11:02:35;4.27;;;3.97;;
2476;SDS011;1249;51.270;6.756;2023-05-14T11:12:32;7.23;;;6.53;;
2476;SDS011;1249;51.270;6.756;2023-05-14T11:14:59;6.00;;;5.40;;
2476;SDS011;1249;51.270;6.756;2023-05-14T11:17:28;12.60;;;5.63;;
2476;SDS011;1249;51.270;6.756;2023-05-14T11:19:55;6.63;;;4.67;;
2476;SDS011;1249;51.270;6.756;2023-05-14T11:22:21;4.93;;;4.53;;
2476;SDS011;1249;51.270;6.756;2023-05-14T11:24:47;5.17;;;4.67;;
2476;SDS011;1249;51.270;6.756;2023-05-14T11:27:14;5.37;;;4.87;;
2476;SDS011;1249;51.270;6.756;2023-05-14T11:29:46;5.23;;;4.80;;
2476;SDS011;1249;51.270;6.756;2023-05-14T11:32:13;4.80;;;4.40;;
2476;SDS011;1249;51.270;6.756;2023-05-14T11:34:40;4.33;;;4.03;;
2476;SDS011;1249;51.270;6.756;2023-05-14T11:37:08;7.90;;;4.33;;
2476;SDS011;1249;51.270;6.756;2023-05-14T11:39:35;5.37;;;4.87;;
2476;SDS011;1249;51.270;6.756;2023-05-14T11:42:02;4.03;;;3.70;;
2476;SDS011;1249;51.270;6.756;2023-05-14T11:44:39;3.40;;;3.20;;
2476;SDS011;1249;51.270;6.756;2023-05-14T11:47:06;3.80;;;3.50;;
2476;SDS011;1249;51.270;6.756;2023-05-14T11:49:31;3.37;;;3.07;;
2476;SDS011;1249;51.270;6.756;2023-05-14T11:52:00;3.23;;;3.03;;
2476;SDS011;1249;51.270;6.756;2023-05-14T11:54:27;3.80;;;3.23;;
2476;SDS011;1249;51.270;6.756;2023-05-14T11:56:54;3.67;;;3.27;;
2476;SDS011;1249;51.270;6.756;2023-05-14T11:59:20;3.00;;;2.80;;
2476;SDS011;1249;51.270;6.756;2023-05-14T12:01:48;3.50;;;3.30;;
2476;SDS011;1249;51.270;6.756;2023-05-14T12:04:13;3.43;;;3.23;;
2476;SDS011;1249;51.270;6.756;2023-05-14T12:06:39;3.13;;;2.93;;
2476;SDS011;1249;51.270;6.756;2023-05-14T12:09:05;3.30;;;3.10;;
2476;SDS011;1249;51.270;6.756;2023-05-14T12:11:31;3.40;;;3.20;;
2476;SDS011;1249;51.270;6.756;2023-05-14T12:13:57;4.03;;;3.50;;
2476;SDS011;1249;51.270;6.756;2023-05-14T12:16:28;4.20;;;3.60;;
2476;SDS011;1249;51.270;6.756;2023-05-14T12:18:59;3.60;;;3.40;;
2476;SDS011;1249;51.270;6.756;2023-05-14T12:21:28;3.23;;;2.97;;
2476;SDS011;1249;51.270;6.756;2023-05-14T12:23:59;3.33;;;3.03;;
2476;SDS011;1249;51.270;6.756;2023-05-14T12:26:25;3.60;;;3.30;;
2476;SDS011;1249;51.270;6.756;2023-05-14T12:29:00;4.60;;;4.20;;
2476;SDS011;1249;51.270;6.756;2023-05-14T12:31:27;3.40;;;3.10;;
2476;SDS011;1249;51.270;6.756;2023-05-14T12:33:54;5.30;;;3.43;;
2476;SDS011;1249;51.270;6.756;2023-05-14T12:36:19;4.07;;;3.77;;
2476;SDS011;1249;51.270;6.756;2023-05-14T12:38:45;4.30;;;3.93;;
2476;SDS011;1249;51.270;6.756;2023-05-14T12:41:11;4.33;;;3.50;;
2476;SDS011;1249;51.270;6.756;2023-05-14T12:43:36;4.30;;;4.00;;
2476;SDS011;1249;51.270;6.756;2023-05-14T12:46:02;3.50;;;3.20;;
2476;SDS011;1249;51.270;6.756;2023-05-14T12:48:27;4.00;;;3.70;;
2476;SDS011;1249;51.270;6.756;2023-05-14T12:50:53;4.43;;;3.40;;
2476;SDS011;1249;51.270;6.756;2023-05-14T12:53:18;4.00;;;3.70;;
2476;SDS011;1249;51.270;6.756;2023-05-14T12:55:44;3.67;;;3.37;;
2476;SDS011;1249;51.270;6.756;2023-05-14T12:58:09;4.13;;;3.73;;
2476;SDS011;1249;51.270;6.756;2023-05-14T13:00:35;3.87;;;3.57;;
2476;SDS011;1249;51.270;6.756;2023-05-14T13:03:00;3.73;;;3.43;;
2476;SDS011;1249;51.270;6.756;2023-05-14T13:05:26;4.30;;;4.00;;
2476;SDS011;1249;51.270;6.756;2023-05-14T13:07:52;3.57;;;3.20;;
2476;SDS011;1249;51.270;6.756;2023-05-14T13:10:17;3.17;;;2.97;;
2476;SDS011;1249;51.270;6.756;2023-05-14T13:12:43;4.23;;;3.93;;
2476;SDS011;1249;51.270;6.756;2023-05-14T13:15:09;3.40;;;3.20;;
2476;SDS011;1249;51.270;6.756;2023-05-14T13:17:35;3.20;;;3.00;;
2476;SDS011;1249;51.270;6.756;2023-05-14T13:20:01;3.90;;;3.60;;
2476;SDS011;1249;51.270;6.756;2023-05-14T13:22:26;4.63;;;3.60;;
2476;SDS011;1249;51.270;6.756;2023-05-14T13:24:52;3.50;;;3.30;;
2476;SDS011;1249;51.270;6.756;2023-05-14T13:27:17;3.73;;;3.40;;
2476;SDS011;1249;51.270;6.756;2023-05-14T13:29:43;4.10;;;3.70;;
2476;SDS011;1249;51.270;6.756;2023-05-14T13:32:08;3.73;;;3.43;;
2476;SDS011;1249;51.270;6.756;2023-05-14T13:34:34;3.67;;;3.37;;
2476;SDS011;1249;51.270;6.756;2023-05-14T13:37:00;4.20;;;3.80;;
2476;SDS011;1249;51.270;6.756;2023-05-14T13:39:25;3.87;;;3.57;;
2476;SDS011;1249;51.270;6.756;2023-05-14T13:41:52;3.63;;;3.20;;
2476;SDS011;1249;51.270;6.756;2023-05-14T13:44:20;3.63;;;3.33;;
2476;SDS011;1249;51.270;6.756;2023-05-14T13:46:46;3.60;;;2.97;;
2476;SDS011;1249;51.270;6.756;2023-05-14T13:49:11;3.27;;;3.00;;
2476;SDS011;1249;51.270;6.756;2023-05-14T13:51:37;3.60;;;3.30;;
2476;SDS011;1249;51.270;6.756;2023-05-14T13:54:02;3.87;;;3.53;;
2476;SDS011;1249;51.270;6.756;2023-05-14T13:56:28;3.27;;;3.00;;
2476;SDS011;1249;51.270;6.756;2023-05-14T13:58:54;6.60;;;3.90;;
2476;SDS011;1249;51.270;6.756;2023-05-14T14:01:19;5.73;;;3.70;;
2476;SDS011;1249;51.270;6.756;2023-05-14T14:03:45;4.10;;;3.70;;
2476;SDS011;1249;51.270;6.756;2023-05-14T14:06:11;4.10;;;3.80;;
2476;SDS011;1249;51.270;6.756;2023-05-14T14:08:36;3.80;;;3.50;;
2476;SDS011;1249;51.270;6.756;2023-05-14T14:11:02;3.20;;;2.90;;
2476;SDS011;1249;51.270;6.756;2023-05-14T14:13:28;3.80;;;3.50;;
2476;SDS011;1249;51.270;6.756;2023-05-14T14:15:53;3.40;;;3.20;;
2476;SDS011;1249;51.270;6.756;2023-05-14T14:18:19;4.27;;;3.90;;
2476;SDS011;1249;51.270;6.756;2023-05-14T14:20:44;5.43;;;3.70;;
2476;SDS011;1249;51.270;6.756;2023-05-14T14:23:10;3.90;;;3.60;;
2476;SDS011;1249;51.270;6.756;2023-05-14T14:25:36;4.20;;;3.80;;
2476;SDS011;1249;51.270;6.756;2023-05-14T14:28:01;3.70;;;3.40;;
2476;SDS011;1249;51.270;6.756;2023-05-14T14:30:27;3.80;;;3.53;;
2476;SDS011;1249;51.270;6.756;2023-05-14T14:32:52;4.10;;;3.77;;
2476;SDS011;1249;51.270;6.756;2023-05-14T14:35:18;4.10;;;3.80;;
2476;SDS011;1249;51.270;6.756;2023-05-14T14:37:44;5.63;;;3.43;;
2476;SDS011;1249;51.270;6.756;2023-05-14T14:40:14;3.70;;;3.40;;
2476;SDS011;1249;51.270;6.756;2023-05-14T14:43:10;3.30;;;3.10;;
2476;SDS011;1249;51.270;6.756;2023-05-14T14:45:36;4.07;;;3.30;;
2476;SDS011;1249;51.270;6.756;2023-05-14T14:48:20;4.03;;;3.73;;
2476;SDS011;1249;51.270;6.756;2023-05-14T14:50:51;3.70;;;3.40;;
2476;SDS011;1249;51.270;6.756;2023-05-14T14:53:17;4.10;;;3.20;;
2476;SDS011;1249;51.270;6.756;2023-05-14T14:55:44;3.47;;;3.23;;
2476;SDS011;1249;51.270;6.756;2023-05-14T14:58:09;3.60;;;3.30;;
2476;SDS011;1249;51.270;6.756;2023-05-14T15:00:35;5.00;;;3.50;;
2476;SDS011;1249;51.270;6.756;2023-05-14T15:03:00;3.10;;;2.80;;
2476;SDS011;1249;51.270;6.756;2023-05-14T15:05:26;4.10;;;3.80;;
2476;SDS011;1249;51.270;6.756;2023-05-14T15:07:52;5.43;;;4.93;;
2476;SDS011;1249;51.270;6.756;2023-05-14T15:10:17;4.33;;;3.93;;
2476;SDS011;1249;51.270;6.756;2023-05-14T15:12:43;3.73;;;3.43;;
2476;SDS011;1249;51.270;6.756;2023-05-14T15:15:09;3.83;;;3.53;;
2476;SDS011;1249;51.270;6.756;2023-05-14T15:17:34;4.20;;;3.77;;
2476;SDS011;1249;51.270;6.756;2023-05-14T15:20:00;4.30;;;3.60;;
2476;SDS011;1249;51.270;6.756;2023-05-14T15:22:26;3.80;;;3.50;;
2476;SDS011;1249;51.270;6.756;2023-05-14T15:24:52;3.97;;;3.57;;